Time;durP1;ratioP1;P1;durP2;ratioP2;P2;SDS_P1;SDS_P2;PMS_P1;PMS_P2;Temp;Humidity;BMP_temperature;BMP_pressure;BME280_temperature;BME280_humidity;BME280_pressure;Samples;Min_cycle;Max_cycle;Signal;HPM_P1;HPM_P2
2021/01/28 00:01:56;;;;;;;122.90;44.05;;;;;;;-2.17;74.94;99242.81;5117679;28;20467;-56
2021/01/28 00:04:22;;;;;;;134.02;49.97;;;;;;;-2.25;74.98;99239.25;5117190;28;20112;-56
2021/01/28 00:06:48;;;;;;;157.60;51.35;;;;;;;-2.36;75.50;99238.22;5118089;28;20356;-56
2021/01/28 00:09:13;;;;;;;144.32;51.78;;;;;;;-2.36;75.26;99245.91;5117788;27;20069;-56
2021/01/28 00:11:39;;;;;;;148.52;53.30;;;;;;;-2.44;74.86;99235.53;5117989;28;20050;-56
2021/01/28 00:14:05;;;;;;;139.38;52.47;;;;;;;-2.52;75.10;99229.38;5117557;28;20040;-56
2021/01/28 00:16:31;;;;;;;173.68;60.95;;;;;;;-2.58;76.65;99231.81;5117643;28;20039;-56
2021/01/28 00:18:57;;;;;;;171.05;57.20;;;;;;;-2.60;77.74;99215.53;5117835;28;20116;-56
2021/01/28 00:21:23;;;;;;;169.68;57.22;;;;;;;-2.59;76.75;99220.72;5117463;28;20356;-56
2021/01/28 00:23:48;;;;;;;167.95;55.50;;;;;;;-2.60;76.51;99223.22;5117375;28;20043;-56
2021/01/28 00:26:17;;;;;;;166.40;55.15;;;;;;;-2.63;76.62;99223.22;5117446;28;20039;-56
2021/01/28 00:28:43;;;;;;;160.70;54.17;;;;;;;-2.66;76.87;99225.72;5117976;28;20043;-56
2021/01/28 00:31:09;;;;;;;159.38;53.58;;;;;;;-2.67;76.71;99217.13;5117347;28;20428;-56
2021/01/28 00:33:35;;;;;;;171.10;55.28;;;;;;;-2.77;76.78;99217.81;5117857;28;20096;-56
2021/01/28 00:36:01;;;;;;;168.30;59.35;;;;;;;-2.92;78.51;99213.25;5116627;28;20073;-56
2021/01/28 00:38:28;;;;;;;161.07;57.25;;;;;;;-2.89;77.93;99205.63;5117411;28;20101;-56
2021/01/28 00:40:54;;;;;;;185.05;60.78;;;;;;;-2.92;77.11;99197.88;5116526;28;20156;-56
2021/01/28 00:43:20;;;;;;;168.10;58.50;;;;;;;-2.90;77.00;99200.47;5117173;28;20069;-56
2021/01/28 00:45:46;;;;;;;159.90;55.72;;;;;;;-2.93;76.86;99198.69;5117089;27;20378;-56
2021/01/28 00:48:12;;;;;;;144.73;53.50;;;;;;;-2.95;76.97;99202.94;5117277;28;20390;-56
2021/01/28 00:50:38;;;;;;;143.25;53.17;;;;;;;-2.98;77.02;99200.31;5117037;28;20035;-56
2021/01/28 00:53:04;;;;;;;154.32;54.08;;;;;;;-3.07;76.92;99198.44;5117402;28;20360;-56
2021/01/28 00:55:30;;;;;;;140.45;52.58;;;;;;;-3.22;77.25;99190.44;5116875;28;20052;-56
2021/01/28 00:58:06;;;;;;;140.35;51.90;;;;;;;-3.23;78.23;99196.41;5116032;28;20051;-56
2021/01/28 01:00:42;;;;;;;135.02;50.60;;;;;;;-3.20;78.43;99196.47;5116879;28;20059;-56
2021/01/28 01:03:11;;;;;;;128.07;50.58;;;;;;;-3.24;77.69;99204.06;5115929;28;20052;-56
2021/01/28 01:05:40;;;;;;;132.02;47.60;;;;;;;-3.21;77.40;99205.00;5116134;28;20062;-57
2021/01/28 01:08:07;;;;;;;131.55;49.97;;;;;;;-3.25;77.36;99210.00;5117082;28;20130;-56
2021/01/28 01:10:38;;;;;;;133.88;48.20;;;;;;;-3.31;77.58;99201.38;5099266;28;20052;-56
2021/01/28 01:13:06;;;;;;;142.38;54.08;;;;;;;-3.44;77.28;99198.53;5116826;28;20043;-56
2021/01/28 01:15:32;;;;;;;139.85;49.80;;;;;;;-3.46;78.47;99188.25;5116923;28;20054;-56
2021/01/28 01:17:57;;;;;;;145.48;48.13;;;;;;;-3.46;78.71;99185.69;5116932;28;20052;-56
2021/01/28 01:20:30;;;;;;;132.13;48.15;;;;;;;-3.46;78.71;99174.59;5115827;28;20046;-56
2021/01/28 01:22:56;;;;;;;138.02;49.05;;;;;;;-3.46;78.48;99175.44;5115745;28;20044;-56
2021/01/28 01:25:23;;;;;;;141.07;49.30;;;;;;;-3.50;78.59;99176.22;5115558;28;20035;-56
2021/01/28 01:27:49;;;;;;;139.00;51.05;;;;;;;-3.54;79.08;99172.72;5115252;28;20036;-56
2021/01/28 01:30:40;;;;;;;134.02;50.05;;;;;;;-3.56;79.11;99176.09;5102286;28;20039;-56
2021/01/28 01:33:06;;;;;;;139.45;47.75;;;;;;;-3.55;78.60;99172.69;5115598;28;20050;-56
2021/01/28 01:35:40;;;;;;;131.45;46.13;;;;;;;-3.54;78.25;99167.63;5115933;28;20081;-56
2021/01/28 01:38:09;;;;;;;138.43;48.30;;;;;;;-3.60;78.05;99169.19;5115793;28;20051;-56
2021/01/28 01:40:41;;;;;;;118.57;44.15;;;;;;;-3.61;78.92;99165.72;5099105;28;20062;-56
2021/01/28 01:43:09;;;;;;;124.90;44.47;;;;;;;-3.65;78.69;99163.09;5098646;28;20443;-56
2021/01/28 01:45:45;;;;;;;129.20;48.70;;;;;;;-3.64;78.39;99158.00;5099274;28;20044;-56
2021/01/28 01:48:35;;;;;;;132.25;49.75;;;;;;;-3.77;78.92;99149.22;5115787;28;20051;-56
2021/01/28 01:51:21;;;;;;;121.18;42.20;;;;;;;-3.78;79.09;99142.34;5115776;28;20063;-55
2021/01/28 01:54:03;;;;;;;128.30;44.03;;;;;;;-3.82;78.81;99137.13;5115695;28;20048;-56
2021/01/28 01:56:35;;;;;;;118.65;43.00;;;;;;;-3.90;78.65;99129.28;5099220;28;20040;-56
2021/01/28 01:59:20;;;;;;;113.32;38.35;;;;;;;-3.95;78.63;99125.75;5115637;28;20044;-56
2021/01/28 02:02:03;;;;;;;125.82;46.83;;;;;;;-4.00;80.11;99122.22;5115417;28;20047;-55
2021/01/28 02:05:24;;;;;;;109.53;41.75;;;;;;;-4.00;79.55;99117.09;5062633;28;20426;-56
2021/01/28 02:08:10;;;;;;;122.70;42.42;;;;;;;-4.12;78.30;99111.75;5061252;28;20056;-56
2021/01/28 02:10:54;;;;;;;136.25;44.20;;;;;;;-4.13;78.44;99113.41;5105640;28;20067;-56
2021/01/28 02:13:29;;;;;;;129.88;46.45;;;;;;;-4.13;80.35;99107.44;5116374;28;20047;-56
2021/01/28 02:16:21;;;;;;;126.20;44.00;;;;;;;-4.20;79.80;99100.47;5115497;28;20351;-55
2021/01/28 02:19:07;;;;;;;128.50;44.95;;;;;;;-4.23;80.49;99086.75;5086845;28;20047;-56
2021/01/28 02:21:36;;;;;;;110.65;42.47;;;;;;;-4.18;80.47;99092.00;5081758;28;20132;-56
2021/01/28 02:24:17;;;;;;;114.30;40.88;;;;;;;-4.14;80.05;99096.34;5099394;28;20078;-56
2021/01/28 02:26:44;;;;;;;115.97;43.60;;;;;;;-4.16;79.63;99094.56;5115400;28;20040;-55
2021/01/28 02:29:30;;;;;;;124.40;44.92;;;;;;;-4.23;79.57;99102.09;5101171;28;20352;-56
2021/01/28 02:31:56;;;;;;;120.90;44.85;;;;;;;-4.23;80.54;99091.03;5098962;28;20054;-56
2021/01/28 02:34:26;;;;;;;117.68;42.20;;;;;;;-4.18;80.14;99088.59;5082403;28;20047;-55
2021/01/28 02:37:16;;;;;;;116.72;43.08;;;;;;;-4.16;79.72;99079.22;5115850;28;20444;-56
2021/01/28 02:40:01;;;;;;;122.30;46.08;;;;;;;-4.17;79.85;99083.47;5119451;28;20116;-56
2021/01/28 02:42:59;;;;;;;126.20;43.35;;;;;;;-4.25;80.25;99074.78;5119705;28;20153;-56
2021/01/28 02:45:42;;;;;;;123.85;44.72;;;;;;;-4.28;81.53;99065.34;5118548;28;20043;-56
2021/01/28 02:48:22;;;;;;;125.28;46.40;;;;;;;-4.34;80.51;99062.66;5103937;28;20046;-56
2021/01/28 02:51:01;;;;;;;113.00;41.95;;;;;;;-4.25;81.26;99056.91;5103449;28;20043;-56
2021/01/28 02:53:34;;;;;;;109.38;42.58;;;;;;;-4.23;80.54;99058.63;5119543;27;20504;-56
2021/01/28 02:56:00;;;;;;;116.72;42.38;;;;;;;-4.25;80.43;99055.19;5101440;28;20375;-56
2021/01/28 02:58:26;;;;;;;121.10;46.55;;;;;;;-4.29;80.80;99055.97;5118314;28;20062;-56
2021/01/28 03:01:06;;;;;;;98.30;38.42;;;;;;;-4.24;80.40;99048.38;5118133;28;20573;-56
2021/01/28 03:03:32;;;;;;;100.63;39.97;;;;;;;-4.24;80.13;99046.69;5118475;28;20048;-56
2021/01/28 03:05:58;;;;;;;99.40;39.75;;;;;;;-4.20;79.82;99041.63;5119620;28;20043;-56
2021/01/28 03:08:25;;;;;;;98.88;37.63;;;;;;;-4.20;79.68;99046.75;5119046;28;20046;-56
2021/01/28 03:11:11;;;;;;;80.63;35.15;;;;;;;-4.26;79.83;99034.69;5118857;28;20447;-55
2021/01/28 03:13:40;;;;;;;87.80;33.55;;;;;;;-4.29;79.87;99032.94;5118328;28;20048;-56
2021/01/28 03:16:20;;;;;;;87.38;37.22;;;;;;;-4.26;81.51;99027.91;5119133;28;20082;-56
2021/01/28 03:18:56;;;;;;;84.28;35.17;;;;;;;-4.27;80.74;99033.81;5118107;28;20056;-56
2021/01/28 03:21:22;;;;;;;87.40;36.47;;;;;;;-4.30;80.33;99036.31;5119048;28;20048;-56
2021/01/28 03:23:59;;;;;;;77.85;34.33;;;;;;;-4.28;81.05;99039.78;5102718;28;20044;-56
2021/01/28 03:26:37;;;;;;;83.80;35.30;;;;;;;-4.27;80.83;99036.38;5118991;28;20052;-56
2021/01/28 03:29:05;;;;;;;91.47;35.83;;;;;;;-4.29;81.04;99032.94;5117825;28;20140;-56
2021/01/28 03:31:31;;;;;;;83.43;34.25;;;;;;;-4.28;81.29;99024.44;5100864;28;20351;-56
2021/01/28 03:33:57;;;;;;;84.13;35.35;;;;;;;-4.23;81.86;99019.41;5100976;28;20051;-56
2021/01/28 03:36:24;;;;;;;78.45;32.63;;;;;;;-4.19;81.20;99022.88;5117896;28;20040;-56
2021/01/28 03:38:54;;;;;;;78.47;34.67;;;;;;;-4.23;80.88;99015.16;5117566;28;20051;-56
2021/01/28 03:41:20;;;;;;;80.43;35.20;;;;;;;-4.25;82.88;99003.19;5118334;28;20057;-57
2021/01/28 03:43:46;;;;;;;83.78;34.28;;;;;;;-4.21;82.29;98993.88;5117597;28;20138;-55
2021/01/28 03:46:18;;;;;;;80.22;32.58;;;;;;;-4.21;81.59;98997.31;5117419;28;20135;-56
2021/01/28 03:48:48;;;;;;;82.88;34.63;;;;;;;-4.20;81.02;98987.94;5117163;28;20140;-56
2021/01/28 03:51:31;;;;;;;80.50;33.40;;;;;;;-4.21;80.88;98994.75;5118456;28;20055;-56
2021/01/28 03:54:16;;;;;;;109.95;44.65;;;;;;;-4.22;80.86;99000.69;5118051;28;20044;-56
2021/01/28 03:57:03;;;;;;;186.65;65.88;;;;;;;-4.21;81.05;99006.66;5118077;28;20184;-56
2021/01/28 03:59:29;;;;;;;449.75;135.13;;;;;;;-4.23;81.21;99004.06;5117195;28;20133;-56
2021/01/28 04:02:16;;;;;;;398.65;111.63;;;;;;;-4.24;81.30;98995.53;5117904;28;20062;-56
2021/01/28 04:05:01;;;;;;;384.20;108.60;;;;;;;-4.28;81.97;98987.78;5117379;28;20386;-56
2021/01/28 04:07:53;;;;;;;394.52;118.43;;;;;;;-4.28;81.48;98978.41;5101633;28;20047;-56
2021/01/28 04:10:32;;;;;;;368.20;111.07;;;;;;;-4.29;80.57;98970.69;5117219;28;20048;-56
2021/01/28 04:13:00;;;;;;;367.83;115.05;;;;;;;-4.36;81.08;98971.41;5117144;28;20047;-56
2021/01/28 04:15:34;;;;;;;320.42;107.30;;;;;;;-4.36;81.51;98969.69;5116855;28;20436;-56
2021/01/28 04:18:02;;;;;;;271.77;89.93;;;;;;;-4.39;81.26;98967.06;5117917;28;20363;-56
2021/01/28 04:20:35;;;;;;;276.48;92.65;;;;;;;-4.36;81.09;98966.28;5117328;28;20050;-56
2021/01/28 04:23:06;;;;;;;214.68;81.72;;;;;;;-4.47;81.84;98966.06;5116964;28;20431;-56
2021/01/28 04:25:48;;;;;;;202.80;70.15;;;;;;;-4.42;82.10;98954.22;5116699;28;20055;-56
2021/01/28 04:28:14;;;;;;;183.77;72.50;;;;;;;-4.47;82.98;98948.16;5117174;28;20035;-56
2021/01/28 04:30:49;;;;;;;163.82;63.53;;;;;;;-4.36;82.51;98930.47;5116545;28;20047;-56
2021/01/28 04:33:15;;;;;;;156.90;64.93;;;;;;;-4.33;81.64;98926.28;5117005;28;20050;-56
2021/01/28 04:36:04;;;;;;;152.82;58.85;;;;;;;-4.30;81.34;98913.56;5111639;28;20062;-56
2021/01/28 04:38:30;;;;;;;157.20;55.47;;;;;;;-4.26;81.25;98907.72;5116681;28;20085;-56
2021/01/28 04:41:05;;;;;;;140.43;55.55;;;;;;;-4.25;81.16;98888.97;5116390;28;20076;-56
2021/01/28 04:43:31;;;;;;;129.32;55.60;;;;;;;-4.22;81.99;98883.06;5116852;28;20118;-56
2021/01/28 04:46:24;;;;;;;143.40;57.25;;;;;;;-4.16;81.87;98874.63;5116250;28;20051;-56
2021/01/28 04:49:00;;;;;;;127.53;54.00;;;;;;;-4.12;81.38;98876.41;5116566;28;20086;-56
2021/01/28 04:51:49;;;;;;;115.78;47.88;;;;;;;-4.10;81.73;98875.59;5088875;28;20043;-56
2021/01/28 04:54:22;;;;;;;114.30;48.42;;;;;;;-4.00;81.40;98876.63;5116382;28;20043;-54
2021/01/28 04:56:50;;;;;;;101.47;45.70;;;;;;;-3.94;81.50;98876.72;5116313;28;20047;-54
2021/01/28 04:59:29;;;;;;;116.93;47.15;;;;;;;-3.83;81.92;98867.56;5116354;28;20055;-54
2021/01/28 05:01:55;;;;;;;182.27;62.03;;;;;;;-3.76;81.62;98855.72;5098492;28;20062;-54
2021/01/28 05:04:43;;;;;;;;;;;;;;;-3.69;82.04;98861.81;5117007;28;20058;-57
2021/01/28 05:07:29;;;;;;;158.02;58.13;;;;;;;-3.58;82.08;98858.56;5115949;28;19963;-57
2021/01/28 05:10:13;;;;;;;133.90;55.13;;;;;;;-3.46;82.56;98849.38;5117031;28;20059;-57
2021/01/28 05:13:08;;;;;;;139.48;53.80;;;;;;;-3.30;82.18;98851.34;5116615;28;20052;-57
2021/01/28 05:16:18;;;;;;;136.90;52.85;;;;;;;-3.13;82.05;98851.59;5116444;28;20063;-57
2021/01/28 05:19:05;;;;;;;130.48;51.00;;;;;;;-2.97;81.81;98856.09;5116092;28;20062;-57
2021/01/28 05:22:03;;;;;;;86.70;37.65;;;;;;;-2.88;81.48;98852.81;5117171;28;20051;-57
2021/01/28 05:24:37;;;;;;;94.78;38.17;;;;;;;-2.81;81.58;98844.34;5115983;28;20079;-57
2021/01/28 05:27:31;;;;;;;110.00;43.22;;;;;;;-2.66;81.20;98846.25;5099383;28;20051;-57
2021/01/28 05:29:59;;;;;;;91.30;37.42;;;;;;;-2.56;80.87;98845.53;5115632;28;20364;-57
2021/01/28 05:32:45;;;;;;;102.00;41.92;;;;;;;-2.44;80.53;98837.97;5115589;28;20055;-57
2021/01/28 05:35:36;;;;;;;119.50;46.08;;;;;;;-2.37;80.45;98841.47;5115227;28;20467;-57
2021/01/28 05:38:18;;;;;;;91.30;38.80;;;;;;;-2.27;80.06;98845.00;5115564;28;20570;-57
2021/01/28 05:41:04;;;;;;;90.38;36.15;;;;;;;-2.17;79.78;98849.38;5103046;28;20035;-57
2021/01/28 05:43:43;;;;;;;79.35;34.17;;;;;;;-2.10;79.58;98838.34;5099977;28;20040;-57
2021/01/28 05:46:27;;;;;;;99.50;38.35;;;;;;;-2.04;79.46;98837.53;5115800;28;20048;-57
2021/01/28 05:49:18;;;;;;;87.13;35.47;;;;;;;-1.92;79.21;98837.63;5101755;28;20043;-57
2021/01/28 05:51:50;;;;;;;84.70;35.72;;;;;;;-1.85;78.87;98830.84;5115836;28;20059;-57
2021/01/28 05:54:26;;;;;;;87.43;33.25;;;;;;;-1.77;78.57;98837.78;5115642;28;20043;-54
2021/01/28 05:57:23;;;;;;;67.75;30.20;;;;;;;-1.77;78.35;98839.50;5113246;28;20461;-54
2021/01/28 06:00:03;;;;;;;76.53;32.30;;;;;;;-1.67;78.38;98836.16;5083727;28;20051;-54
2021/01/28 06:03:07;;;;;;;67.75;30.08;;;;;;;-1.61;78.31;98832.78;5116499;28;20048;-54
2021/01/28 06:06:17;;;;;;;58.33;27.17;;;;;;;-1.56;78.64;98820.81;5116319;28;20047;-54
2021/01/28 06:09:00;;;;;;;61.85;24.60;;;;;;;-1.46;78.63;98796.97;5102821;28;20127;-54
2021/01/28 06:11:29;;;;;;;54.30;23.00;;;;;;;-1.23;77.81;98792.81;5115564;28;20056;-55
2021/01/28 06:14:13;;;;;;;46.58;22.25;;;;;;;-1.00;77.00;98785.22;5120039;28;20122;-54
2021/01/28 06:17:16;;;;;;;31.42;15.77;;;;;;;-0.79;75.77;98778.47;5119512;28;20040;-55
2021/01/28 06:20:21;;;;;;;33.08;16.08;;;;;;;-0.95;76.35;98780.97;5119562;28;20134;-55
2021/01/28 06:23:17;;;;;;;38.92;16.95;;;;;;;-0.78;75.89;98772.44;5119651;28;20044;-55
2021/01/28 06:26:24;;;;;;;29.77;15.80;;;;;;;-0.76;75.24;98781.91;5074662;28;20044;-55
2021/01/28 06:29:26;;;;;;;40.40;19.60;;;;;;;-0.66;74.99;98761.38;5119817;28;20077;-55
2021/01/28 06:31:56;;;;;;;42.03;18.23;;;;;;;-0.59;74.83;98765.66;5119215;28;20075;-55
2021/01/28 06:34:49;;;;;;;38.42;17.35;;;;;;;-0.60;74.85;98766.53;5088104;28;20146;-55
2021/01/28 06:37:53;;;;;;;40.75;18.50;;;;;;;-0.54;74.62;98769.13;5119251;28;20051;-55
2021/01/28 06:40:45;;;;;;;38.22;18.42;;;;;;;-0.42;73.88;98769.16;5098296;28;20463;-55
2021/01/28 06:43:50;;;;;;;33.28;15.93;;;;;;;-0.35;73.62;98770.03;5097297;28;20371;-55
2021/01/28 06:46:48;;;;;;;34.63;16.88;;;;;;;-0.48;73.90;98759.72;5118875;28;20043;-55
2021/01/28 06:49:36;;;;;;;45.55;21.52;;;;;;;-0.48;74.58;98761.44;5118986;28;20056;-55
2021/01/28 06:52:21;;;;;;;37.78;18.77;;;;;;;-0.45;73.95;98755.44;5101853;28;20047;-55
2021/01/28 06:54:53;;;;;;;44.83;20.95;;;;;;;-0.37;73.64;98749.44;5086252;28;20043;-54
2021/01/28 06:57:56;;;;;;;67.57;42.67;;;;;;;-0.33;73.24;98740.00;5118841;28;20055;-55
2021/01/28 07:01:25;;;;;;;46.85;25.73;;;;;;;-0.39;73.59;98742.56;5088743;28;20073;-54
2021/01/28 07:04:21;;;;;;;39.53;18.10;;;;;;;-0.30;73.55;98740.00;5060150;28;20056;-55
2021/01/28 07:07:23;;;;;;;37.13;17.88;;;;;;;-0.36;73.52;98748.56;5056867;28;20122;-54
2021/01/28 07:10:15;;;;;;;46.95;22.20;;;;;;;-0.30;73.68;98751.16;5119218;28;20100;-55
2021/01/28 07:13:11;;;;;;;55.75;28.00;;;;;;;-0.26;73.88;98762.31;5104727;28;20511;-55
2021/01/28 07:16:01;;;;;;;41.88;21.05;;;;;;;-0.25;73.81;98759.75;5118471;28;20047;-55
2021/01/28 07:18:39;;;;;;;43.40;21.67;;;;;;;-0.15;73.79;98755.47;5117975;28;20432;-55
2021/01/28 07:21:06;;;;;;;41.28;20.55;;;;;;;-0.03;73.07;98747.78;5101664;28;20043;-55
2021/01/28 07:23:38;;;;;;;41.60;21.15;;;;;;;0.15;72.45;98743.47;5117708;28;20043;-55
2021/01/28 07:26:14;;;;;;;43.33;20.85;;;;;;;0.08;72.80;98734.91;5117477;28;20423;-55
2021/01/28 07:28:41;;;;;;;60.08;24.38;;;;;;;0.13;73.08;98729.72;5118109;28;20110;-55
2021/01/28 07:31:06;;;;;;;56.65;25.70;;;;;;;0.08;73.41;98718.59;5118846;28;20051;-55
2021/01/28 07:33:37;;;;;;;55.65;25.50;;;;;;;0.17;73.27;98705.72;5118798;28;20048;-55
2021/01/28 07:36:25;;;;;;;42.03;22.48;;;;;;;0.18;73.33;98708.28;5118260;28;20052;-55
2021/01/28 07:39:29;;;;;;;38.67;19.23;;;;;;;0.28;73.32;98701.41;5118567;28;20110;-55
2021/01/28 07:42:27;;;;;;;41.15;21.50;;;;;;;0.44;72.83;98697.94;5118614;28;20047;-55
2021/01/28 07:45:47;;;;;;;42.72;24.45;;;;;;;0.59;71.53;98703.94;5118285;27;20039;-55
2021/01/28 07:48:29;;;;;;;48.58;24.20;;;;;;;0.41;72.29;98686.78;5116446;28;20047;-55
2021/01/28 07:51:36;;;;;;;48.33;22.92;;;;;;;0.47;72.41;98692.78;5089122;28;20051;-55
2021/01/28 07:54:04;;;;;;;45.78;22.77;;;;;;;0.56;72.32;98686.75;5118445;28;20061;-55
2021/01/28 07:56:35;;;;;;;52.90;25.35;;;;;;;0.71;71.96;98701.28;5117812;28;20048;-55
2021/01/28 07:59:03;;;;;;;53.75;25.33;;;;;;;0.71;72.16;98693.56;5118543;28;20063;-55
2021/01/28 08:01:29;;;;;;;70.93;31.80;;;;;;;0.80;71.67;98688.38;5116951;28;20084;-55
2021/01/28 08:04:03;;;;;;;56.63;31.15;;;;;;;0.83;71.37;98692.69;5117816;28;20051;-55
2021/01/28 08:06:28;;;;;;;38.45;20.15;;;;;;;0.82;71.37;98689.25;5117333;28;20063;-55
2021/01/28 08:09:14;;;;;;;40.60;22.73;;;;;;;0.83;71.44;98682.38;5100349;28;20043;-55
2021/01/28 08:11:40;;;;;;;33.42;19.67;;;;;;;0.82;71.86;98671.19;5117977;28;20052;-55
2021/01/28 08:14:07;;;;;;;30.15;15.15;;;;;;;0.99;71.52;98673.69;5117931;28;20047;-55
2021/01/28 08:16:32;;;;;;;32.15;16.13;;;;;;;1.07;71.38;98669.38;5116839;28;20036;-55
2021/01/28 08:19:22;;;;;;;32.97;15.20;;;;;;;0.96;72.40;98672.84;5117909;28;20048;-55
2021/01/28 08:21:48;;;;;;;27.73;15.32;;;;;;;1.01;72.69;98664.25;5116882;28;20193;-55
2021/01/28 08:24:34;;;;;;;35.58;17.17;;;;;;;0.98;73.09;98647.94;5117708;28;20051;-55
2021/01/28 08:27:14;;;;;;;30.20;17.52;;;;;;;0.94;73.59;98652.22;5117692;28;20051;-55
2021/01/28 08:29:40;;;;;;;36.90;18.50;;;;;;;0.97;73.87;98656.50;5117437;28;20092;-55
2021/01/28 08:32:16;;;;;;;32.80;17.02;;;;;;;1.08;73.64;98653.03;5117611;28;20055;-55
2021/01/28 08:34:42;;;;;;;39.45;19.52;;;;;;;1.05;74.26;98652.19;5116482;28;20069;-55
2021/01/28 08:37:13;;;;;;;34.58;18.13;;;;;;;1.22;73.57;98649.50;5116682;28;20051;-55
2021/01/28 08:39:39;;;;;;;34.67;19.42;;;;;;;1.20;73.76;98651.22;5099882;28;20351;-55
2021/01/28 08:42:04;;;;;;;42.05;22.73;;;;;;;1.31;73.34;98654.63;5116535;28;20051;-55
2021/01/28 08:44:31;;;;;;;35.35;19.83;;;;;;;1.31;73.53;98654.63;5117365;27;20047;-55
2021/01/28 08:47:15;;;;;;;36.28;19.35;;;;;;;1.39;72.97;98645.94;5117167;28;20043;-55
2021/01/28 08:49:42;;;;;;;32.92;18.05;;;;;;;1.52;72.92;98644.13;5117321;28;20108;-55
2021/01/28 08:52:09;;;;;;;46.40;26.30;;;;;;;1.48;73.13;98634.72;5117342;28;20155;-55
2021/01/28 08:54:42;;;;;;;36.65;21.20;;;;;;;1.53;72.83;98645.88;5099350;28;20040;-55
2021/01/28 08:57:10;;;;;;;42.10;22.70;;;;;;;1.50;72.71;98632.13;5116233;28;20040;-55
2021/01/28 08:59:42;;;;;;;86.45;47.05;;;;;;;1.49;72.55;98633.84;5116319;28;20059;-55
2021/01/28 09:02:10;;;;;;;52.78;27.90;;;;;;;1.32;73.07;98628.78;5115836;28;20427;-55
2021/01/28 09:04:38;;;;;;;48.08;27.55;;;;;;;1.35;73.15;98627.94;5099718;28;20063;-55
2021/01/28 09:07:05;;;;;;;55.78;30.88;;;;;;;1.47;72.52;98622.69;5099558;28;20104;-55
2021/01/28 09:09:32;;;;;;;51.88;26.65;;;;;;;1.36;72.74;98620.16;5116391;28;20089;-55
2021/01/28 09:12:36;;;;;;;277.40;105.95;;;;;;;1.43;72.04;98621.00;5116121;28;20085;-55
2021/01/28 09:15:14;;;;;;;330.95;121.60;;;;;;;1.53;71.49;98619.22;5074541;28;20440;-55
2021/01/28 09:17:40;;;;;;;256.13;95.25;;;;;;;1.38;72.30;98607.25;5074461;28;20044;-55
2021/01/28 09:20:06;;;;;;;241.57;97.82;;;;;;;1.42;72.64;98601.22;5097804;28;20060;-55
2021/01/28 09:22:33;;;;;;;180.68;82.55;;;;;;;1.52;72.25;98602.00;5116562;28;20101;-55
2021/01/28 09:25:00;;;;;;;79.07;39.40;;;;;;;1.59;72.26;98590.75;5116531;28;20069;-55
2021/01/28 09:27:29;;;;;;;51.33;29.27;;;;;;;1.59;72.14;98589.03;5098813;28;20047;-55
2021/01/28 09:29:55;;;;;;;49.90;27.67;;;;;;;1.57;71.94;98585.59;5115926;28;20453;-55
2021/01/28 09:32:24;;;;;;;43.30;25.02;;;;;;;1.66;72.48;98586.38;5116544;28;20044;-56
2021/01/28 09:35:23;;;;;;;32.42;19.35;;;;;;;1.79;71.01;98583.72;5116729;28;20054;-55
2021/01/28 09:38:01;;;;;;;29.42;15.77;;;;;;;1.78;71.58;98578.53;5115874;28;20051;-56
2021/01/28 09:40:37;;;;;;;29.85;16.00;;;;;;;1.81;71.62;98581.09;5116747;28;20055;-56
2021/01/28 09:43:21;;;;;;;55.88;28.27;;;;;;;1.92;70.85;98573.22;5116740;28;20126;-56
2021/01/28 09:46:20;;;;;;;78.90;38.78;;;;;;;1.92;70.59;98575.81;5116614;28;20054;-56
2021/01/28 09:48:46;;;;;;;80.97;40.33;;;;;;;1.80;71.43;98561.31;5120025;28;20052;-56
2021/01/28 09:51:13;;;;;;;74.13;37.60;;;;;;;1.82;71.53;98563.03;5120823;28;20054;-56
2021/01/28 09:53:57;;;;;;;81.18;37.85;;;;;;;1.85;71.32;98559.53;5121009;28;20043;-55
2021/01/28 09:56:23;;;;;;;53.60;25.35;;;;;;;1.86;71.87;98556.94;5120421;28;20077;-56
2021/01/28 09:58:48;;;;;;;42.92;21.20;;;;;;;1.87;71.73;98561.22;5120694;27;20044;-56
2021/01/28 10:01:14;;;;;;;44.33;22.52;;;;;;;1.89;71.85;98566.41;5120654;28;20048;-56
2021/01/28 10:03:40;;;;;;;55.35;25.67;;;;;;;1.93;71.55;98557.75;5120303;28;20436;-56
2021/01/28 10:06:06;;;;;;;30.48;17.65;;;;;;;1.89;72.00;98557.81;5120116;28;20356;-56
2021/01/28 10:08:32;;;;;;;47.58;22.27;;;;;;;1.85;72.82;98550.09;5120476;28;20043;-56
2021/01/28 10:10:58;;;;;;;31.95;17.73;;;;;;;1.92;73.05;98550.00;5120107;28;20158;-56
2021/01/28 10:13:23;;;;;;;32.40;18.20;;;;;;;1.92;73.63;98544.81;5120362;28;20100;-56
2021/01/28 10:15:49;;;;;;;28.00;15.57;;;;;;;1.93;73.58;98543.97;5120258;28;20064;-55
2021/01/28 10:18:15;;;;;;;30.63;17.48;;;;;;;1.86;74.06;98538.03;5119977;28;20048;-56
2021/01/28 10:20:43;;;;;;;32.47;18.65;;;;;;;1.75;74.78;98540.69;5120185;28;20066;-55
2021/01/28 10:23:09;;;;;;;32.72;19.15;;;;;;;1.78;74.88;98548.41;5119831;28;20455;-55
2021/01/28 10:25:35;;;;;;;31.83;17.20;;;;;;;1.83;74.68;98535.47;5120612;28;20051;-55
2021/01/28 10:28:01;;;;;;;39.03;20.52;;;;;;;1.84;74.95;98534.59;5120082;27;20051;-55
2021/01/28 10:30:26;;;;;;;33.65;19.58;;;;;;;1.90;74.70;98521.63;5119729;28;20056;-55
2021/01/28 10:32:53;;;;;;;34.35;19.98;;;;;;;1.89;75.17;98525.09;5120830;28;20052;-55
2021/01/28 10:35:21;;;;;;;31.33;19.23;;;;;;;1.98;74.76;98521.53;5119109;28;20043;-56
2021/01/28 10:37:47;;;;;;;31.33;16.75;;;;;;;2.02;74.59;98510.31;5119960;28;20055;-55
2021/01/28 10:40:14;;;;;;;29.27;16.02;;;;;;;2.02;74.92;98510.31;5119885;28;20074;-56
2021/01/28 10:42:41;;;;;;;30.58;17.90;;;;;;;2.03;74.69;98499.94;5119020;28;20043;-56
2021/01/28 10:45:10;;;;;;;33.42;19.35;;;;;;;2.07;74.87;98500.75;5101942;28;20050;-56
2021/01/28 10:47:36;;;;;;;34.50;17.90;;;;;;;2.07;75.04;98499.03;5119744;28;20101;-56
2021/01/28 10:50:03;;;;;;;35.60;21.15;;;;;;;2.12;75.16;98492.97;5118816;28;20048;-56
2021/01/28 10:52:28;;;;;;;30.13;19.45;;;;;;;2.14;75.04;98481.72;5119646;28;20047;-56
2021/01/28 10:54:54;;;;;;;33.47;19.20;;;;;;;2.15;74.99;98486.03;5119593;28;20040;-56
2021/01/28 10:57:20;;;;;;;47.42;28.40;;;;;;;2.19;75.40;98474.78;5119563;28;20059;-56
2021/01/28 10:59:46;;;;;;;47.97;29.92;;;;;;;2.36;74.48;98471.97;5117902;28;20048;-56
2021/01/28 11:02:12;;;;;;;63.33;44.63;;;;;;;2.31;74.42;98466.88;5119037;28;20130;-56
2021/01/28 11:04:38;;;;;;;44.80;30.98;;;;;;;2.31;74.74;98464.31;5119354;28;20336;-56
2021/01/28 11:07:03;;;;;;;42.05;24.65;;;;;;;2.36;74.54;98455.63;5119381;28;20500;-56
2021/01/28 11:09:29;;;;;;;35.78;19.83;;;;;;;2.43;74.37;98454.66;5119041;28;20067;-56
2021/01/28 11:11:56;;;;;;;34.08;19.77;;;;;;;2.42;74.27;98455.56;5119022;28;20040;-56
2021/01/28 11:14:22;;;;;;;34.35;20.13;;;;;;;2.48;74.14;98452.88;5118346;28;20051;-56
2021/01/28 11:16:48;;;;;;;33.00;19.55;;;;;;;2.47;74.04;98458.91;5118888;28;20129;-56
2021/01/28 11:19:14;;;;;;;35.00;20.67;;;;;;;2.50;73.95;98449.41;5118878;28;20051;-56
2021/01/28 11:21:40;;;;;;;52.58;27.65;;;;;;;2.47;74.13;98443.41;5119106;28;20108;-57
2021/01/28 11:24:06;;;;;;;47.42;27.25;;;;;;;2.48;74.20;98434.78;5119010;28;20131;-56
2021/01/28 11:26:33;;;;;;;60.00;32.75;;;;;;;2.48;73.95;98420.13;5118099;28;20044;-57
2021/01/28 11:28:58;;;;;;;82.28;42.67;;;;;;;2.49;73.98;98426.16;5118930;28;20062;-56
2021/01/28 11:31:25;;;;;;;121.45;59.72;;;;;;;2.45;73.92;98414.16;5118915;27;20055;-56
2021/01/28 11:33:50;;;;;;;183.10;86.78;;;;;;;2.49;73.86;98415.81;5118523;28;20043;-56
2021/01/28 11:36:16;;;;;;;155.13;76.78;;;;;;;2.58;73.35;98418.25;5119101;28;20043;-57
2021/01/28 11:38:42;;;;;;;94.78;48.40;;;;;;;2.57;73.15;98417.41;5117887;28;20407;-56
2021/01/28 11:41:09;;;;;;;117.63;60.47;;;;;;;2.53;73.47;98417.47;5117537;28;20047;-57
2021/01/28 11:43:35;;;;;;;93.72;44.58;;;;;;;2.53;73.64;98418.31;5118643;28;20104;-57
2021/01/28 11:46:01;;;;;;;74.35;31.88;;;;;;;2.53;73.54;98404.53;5118517;28;20047;-56
2021/01/28 11:48:27;;;;;;;46.63;22.80;;;;;;;2.52;73.54;98408.84;5118297;28;20051;-57
2021/01/28 11:50:53;;;;;;;46.22;21.35;;;;;;;2.54;73.57;98401.94;5117918;28;20352;-56
2021/01/28 11:53:20;;;;;;;44.70;22.75;;;;;;;2.64;73.36;98394.91;5118460;28;20052;-56
2021/01/28 11:55:46;;;;;;;35.83;24.27;;;;;;;2.64;73.22;98399.22;5118417;28;20058;-57